!!! Benutzen Sie für Ihre Flugvorbereitung die offiziellen Quellen !!!

Metar:

EDQM 130750Z 03006KT 6000 FEW004 BKN015 OVC062 M04/M05 Q1019

QNH: 1019
Temperatur: -4
Dew Point : -5

 

METAR (decoded)